createdAt,value
2023-03-07T00:01:33.148Z,3.56
2023-03-07T00:04:01.697Z,3.52
2023-03-07T00:06:32.981Z,3.39
2023-03-07T00:09:02.588Z,3.32
2023-03-07T00:11:33.934Z,3.31
2023-03-07T00:14:20.688Z,3.35
2023-03-07T00:16:52.534Z,3.27
2023-03-07T00:19:24.069Z,3.30
2023-03-07T00:21:52.587Z,3.34
2023-03-07T00:24:24.947Z,3.28
2023-03-07T00:26:53.779Z,3.28
2023-03-07T00:29:22.926Z,3.37
2023-03-07T00:32:22.877Z,3.39
2023-03-07T00:34:57.936Z,3.29
2023-03-07T00:37:31.131Z,3.27
2023-03-07T00:40:01.054Z,3.31
2023-03-07T00:42:33.111Z,3.35
2023-03-07T00:45:02.017Z,3.35
2023-03-07T00:47:32.960Z,3.38
2023-03-07T00:50:03.259Z,3.36
2023-03-07T00:52:39.241Z,3.34
2023-03-07T00:55:14.604Z,3.41
2023-03-07T00:57:52.168Z,3.25
2023-03-07T01:00:33.949Z,3.31
2023-03-07T01:03:24.697Z,3.29
2023-03-07T01:12:15.802Z,3.12
2023-03-07T01:15:18.380Z,3.20
2023-03-07T01:17:51.055Z,3.17
2023-03-07T01:20:28.241Z,3.15
2023-03-07T01:23:03.408Z,3.17
2023-03-07T01:26:25.927Z,3.09
2023-03-07T01:29:34.601Z,3.18
2023-03-07T01:32:15.223Z,3.18
2023-03-07T01:34:54.240Z,3.25
2023-03-07T01:37:31.920Z,3.27
2023-03-07T01:40:41.793Z,3.33
2023-03-07T01:48:14.541Z,3.22
2023-03-07T01:50:47.313Z,3.17
2023-03-07T01:53:16.660Z,3.18
2023-03-07T01:55:47.954Z,3.15
2023-03-07T01:58:41.627Z,3.12
2023-03-07T02:01:33.827Z,3.10
2023-03-07T02:04:59.125Z,3.13
2023-03-07T02:08:23.635Z,3.07
2023-03-07T02:20:12.649Z,2.96
2023-03-07T02:24:50.509Z,2.96
2023-03-07T02:28:23.596Z,2.87
2023-03-07T02:31:07.998Z,2.88
2023-03-07T02:33:40.034Z,2.79
2023-03-07T02:36:29.046Z,2.84
2023-03-07T02:42:34.069Z,2.89
2023-03-07T02:45:40.763Z,2.93
2023-03-07T02:48:15.396Z,2.95
2023-03-07T02:50:51.484Z,2.90
2023-03-07T02:53:20.155Z,2.78
2023-03-07T02:55:52.233Z,2.72
2023-03-07T02:58:29.700Z,2.62
2023-03-07T03:01:00.438Z,2.62
2023-03-07T03:03:45.968Z,2.64
2023-03-07T03:10:20.984Z,2.68
2023-03-07T03:13:13.072Z,2.67
2023-03-07T03:15:44.017Z,2.73
2023-03-07T03:18:18.522Z,2.73
2023-03-07T03:20:49.503Z,2.79
2023-03-07T03:23:18.814Z,2.90
2023-03-07T03:32:41.493Z,2.87
2023-03-07T03:35:15.145Z,2.84
2023-03-07T03:38:26.480Z,2.79
2023-03-07T03:41:05.923Z,2.70
2023-03-07T03:43:38.358Z,2.65
2023-03-07T03:46:07.298Z,2.69
2023-03-07T03:48:38.345Z,2.57
2023-03-07T03:51:12.534Z,2.66
2023-03-07T03:53:42.808Z,2.68
2023-03-07T03:56:30.213Z,2.71
2023-03-07T03:58:58.655Z,2.56
2023-03-07T04:01:30.988Z,2.48
2023-03-07T04:03:59.617Z,2.59
2023-03-07T04:06:30.714Z,2.65
2023-03-07T04:09:05.149Z,2.63
2023-03-07T04:11:35.061Z,2.64
2023-03-07T04:14:04.853Z,2.73
2023-03-07T04:16:35.938Z,2.76
2023-03-07T04:19:07.403Z,2.71
2023-03-07T04:21:36.887Z,2.78
2023-03-07T04:24:09.242Z,2.80
2023-03-07T04:26:37.970Z,2.68
2023-03-07T04:29:06.513Z,2.82
2023-03-07T04:31:43.662Z,2.93
2023-03-07T04:34:12.809Z,2.91
2023-03-07T04:36:43.449Z,3.06
2023-03-07T04:39:13.964Z,2.92
2023-03-07T04:41:44.118Z,2.88
2023-03-07T04:44:21.441Z,2.96
2023-03-07T04:46:49.350Z,2.94
2023-03-07T04:49:18.128Z,2.93
2023-03-07T04:51:49.542Z,3.04
2023-03-07T04:54:25.101Z,3.05
2023-03-07T04:56:54.216Z,3.15
2023-03-07T04:59:28.899Z,2.95
2023-03-07T05:01:59.863Z,2.79
2023-03-07T05:04:28.789Z,2.70
2023-03-07T05:06:57.160Z,2.78
2023-03-07T05:09:25.291Z,2.72
2023-03-07T05:11:54.215Z,2.70
2023-03-07T05:14:23.303Z,2.77
2023-03-07T05:16:53.115Z,2.72
2023-03-07T05:19:22.934Z,2.76
2023-03-07T05:22:12.072Z,2.69
2023-03-07T05:24:41.086Z,2.89
2023-03-07T05:27:11.179Z,2.84
2023-03-07T05:29:39.196Z,2.83
2023-03-07T05:32:08.693Z,2.80
2023-03-07T05:34:47.500Z,2.78
2023-03-07T05:37:23.765Z,2.76
2023-03-07T05:39:52.146Z,2.73
2023-03-07T05:42:20.601Z,2.81
2023-03-07T05:44:50.614Z,2.85
2023-03-07T05:47:33.550Z,3.04
2023-03-07T05:50:16.367Z,3.05
2023-03-07T05:56:06.890Z,3.03
2023-03-07T05:58:45.778Z,2.92
2023-03-07T06:01:27.808Z,2.92
2023-03-07T06:03:58.926Z,2.97
2023-03-07T06:06:30.408Z,3.08
2023-03-07T06:09:10.205Z,3.10
2023-03-07T06:11:45.562Z,3.12
2023-03-07T06:14:14.128Z,3.37
2023-03-07T06:16:50.530Z,3.35
2023-03-07T06:19:22.464Z,3.27
2023-03-07T06:21:56.749Z,3.29
2023-03-07T06:24:35.824Z,3.42
2023-03-07T06:27:11.443Z,3.53
2023-03-07T06:29:44.378Z,3.45
2023-03-07T06:32:36.712Z,3.60
2023-03-07T06:35:20.425Z,3.70
2023-03-07T06:37:56.531Z,3.78
2023-03-07T06:40:51.723Z,3.70
2023-03-07T06:43:24.054Z,3.82
2023-03-07T06:45:57.511Z,4.03
2023-03-07T06:48:42.974Z,4.09
2023-03-07T06:51:22.409Z,4.34
2023-03-07T06:54:04.088Z,4.36
2023-03-07T06:56:36.094Z,4.28
2023-03-07T06:59:09.317Z,4.14
2023-03-07T07:01:41.537Z,4.31
2023-03-07T07:04:11.941Z,4.44
2023-03-07T07:06:45.393Z,4.45
2023-03-07T07:09:14.355Z,4.52
2023-03-07T07:11:42.546Z,4.35
2023-03-07T07:14:13.951Z,4.45
2023-03-07T07:16:44.436Z,4.66
2023-03-07T07:19:13.050Z,4.80
2023-03-07T07:21:45.724Z,4.80
2023-03-07T07:24:16.931Z,4.71
2023-03-07T07:26:44.951Z,4.87
2023-03-07T07:29:13.028Z,5.08
2023-03-07T07:31:41.384Z,4.85
2023-03-07T07:34:09.562Z,4.87
2023-03-07T07:36:38.248Z,4.96
2023-03-07T07:39:09.293Z,5.14
2023-03-07T07:41:39.510Z,5.09
2023-03-07T07:44:07.561Z,5.05
2023-03-07T07:46:43.876Z,5.10
2023-03-07T07:49:13.324Z,4.96
2023-03-07T07:51:41.633Z,4.78
2023-03-07T07:54:09.778Z,5.20
2023-03-07T07:56:38.690Z,5.38
2023-03-07T07:59:06.732Z,5.25
2023-03-07T08:01:38.308Z,5.31
2023-03-07T08:04:11.754Z,5.37
2023-03-07T08:06:44.634Z,5.39
2023-03-07T08:09:15.977Z,5.39
2023-03-07T08:11:48.566Z,5.55
2023-03-07T08:14:17.345Z,5.57
2023-03-07T08:16:45.322Z,5.52
2023-03-07T08:19:13.274Z,5.42
2023-03-07T08:21:41.257Z,5.73
2023-03-07T08:24:14.801Z,5.73
2023-03-07T08:26:48.813Z,5.68
2023-03-07T08:29:16.890Z,5.72
2023-03-07T08:31:51.499Z,5.89
2023-03-07T08:34:19.704Z,5.90
2023-03-07T08:36:47.832Z,6.03
2023-03-07T08:39:20.077Z,6.24
2023-03-07T08:41:48.048Z,6.03
2023-03-07T08:44:15.954Z,5.93
2023-03-07T08:46:43.780Z,5.91
2023-03-07T08:49:12.119Z,6.10
2023-03-07T08:51:43.159Z,6.18
2023-03-07T08:54:11.186Z,6.16
2023-03-07T08:56:39.291Z,6.21
2023-03-07T08:59:07.053Z,6.33
2023-03-07T09:01:34.989Z,6.20
2023-03-07T09:04:03.276Z,6.35
2023-03-07T09:06:34.181Z,6.56
2023-03-07T09:09:08.758Z,6.55
2023-03-07T09:11:38.747Z,6.68
2023-03-07T09:14:09.324Z,6.80
2023-03-07T09:16:37.487Z,6.60
2023-03-07T09:19:05.899Z,6.54
2023-03-07T09:21:33.973Z,6.53
2023-03-07T09:24:02.259Z,6.45
2023-03-07T09:26:33.343Z,6.45
2023-03-07T09:29:01.315Z,6.58
2023-03-07T09:31:30.122Z,6.74
2023-03-07T09:34:01.874Z,6.89
2023-03-07T09:36:29.651Z,7.05
2023-03-07T09:39:01.079Z,7.13
2023-03-07T09:42:06.472Z,7.08
2023-03-07T09:44:40.672Z,7.12
2023-03-07T09:47:39.534Z,7.25
2023-03-07T09:50:23.024Z,7.21
2023-03-07T09:52:57.010Z,7.22
2023-03-07T09:55:26.599Z,7.39
2023-03-07T09:57:58.883Z,7.42
2023-03-07T10:00:34.014Z,7.75
2023-03-07T10:03:25.101Z,7.90
2023-03-07T10:05:59.452Z,8.20
2023-03-07T10:08:34.023Z,8.27
2023-03-07T10:11:23.585Z,8.35
2023-03-07T10:14:13.648Z,8.40
2023-03-07T10:17:03.430Z,8.37
2023-03-07T10:19:34.538Z,8.45
2023-03-07T10:22:30.160Z,8.38
2023-03-07T10:25:17.308Z,8.67
2023-03-07T10:27:48.165Z,8.82
2023-03-07T10:30:19.755Z,8.59
2023-03-07T10:33:01.325Z,8.72
2023-03-07T10:35:44.186Z,8.57
2023-03-07T10:39:01.880Z,8.53
2023-03-07T10:41:30.391Z,8.55
2023-03-07T10:43:58.400Z,8.64
2023-03-07T10:46:30.998Z,8.71
2023-03-07T10:49:10.723Z,9.00
2023-03-07T10:51:52.046Z,9.20
2023-03-07T10:54:30.079Z,9.29
2023-03-07T10:57:11.438Z,9.31
2023-03-07T10:59:47.560Z,9.44
2023-03-07T11:02:36.843Z,9.23
2023-03-07T11:05:33.528Z,9.39
2023-03-07T11:08:28.577Z,9.53
2023-03-07T11:10:58.787Z,9.58
2023-03-07T11:13:29.106Z,9.46
2023-03-07T11:16:19.565Z,9.44
2023-03-07T11:18:48.223Z,9.38
2023-03-07T11:21:36.104Z,9.31
2023-03-07T11:24:25.229Z,9.29
2023-03-07T11:26:55.537Z,9.35
2023-03-07T11:29:24.988Z,9.37
2023-03-07T11:32:14.221Z,9.35
2023-03-07T11:34:53.742Z,9.31
2023-03-07T11:37:44.898Z,9.38
2023-03-07T11:40:45.179Z,9.46
2023-03-07T11:43:37.569Z,9.56
2023-03-07T11:46:12.255Z,9.71
2023-03-07T11:49:02.149Z,9.70
2023-03-07T11:52:01.430Z,9.71
2023-03-07T11:54:51.099Z,9.79
2023-03-07T11:57:27.411Z,9.72
2023-03-07T12:00:16.508Z,9.62
2023-03-07T12:03:03.189Z,9.72
2023-03-07T12:06:00.572Z,9.67
2023-03-07T12:08:37.208Z,9.77
2023-03-07T12:11:16.806Z,9.75
2023-03-07T12:13:54.778Z,9.87
2023-03-07T12:16:45.210Z,9.85
2023-03-07T12:19:15.415Z,9.84
2023-03-07T12:21:52.040Z,9.87
2023-03-07T12:24:25.497Z,9.98
2023-03-07T12:27:02.748Z,9.92
2023-03-07T12:30:07.294Z,9.92
2023-03-07T12:32:36.501Z,9.93
2023-03-07T12:35:24.883Z,9.96
2023-03-07T12:38:08.290Z,10.00
2023-03-07T12:40:42.480Z,9.94
2023-03-07T12:43:33.518Z,9.86
2023-03-07T12:46:16.729Z,9.94
2023-03-07T12:49:08.284Z,9.92
2023-03-07T12:51:43.571Z,9.90
2023-03-07T12:54:25.466Z,9.99
2023-03-07T12:57:18.949Z,9.92
2023-03-07T12:59:46.839Z,9.83
2023-03-07T13:02:21.484Z,9.83
2023-03-07T13:04:49.503Z,9.83
2023-03-07T13:07:28.269Z,9.79
2023-03-07T13:09:58.884Z,9.72
2023-03-07T13:12:37.711Z,9.75
2023-03-07T13:15:17.584Z,9.81
2023-03-07T13:17:47.835Z,9.87
2023-03-07T13:20:15.737Z,9.85
2023-03-07T13:22:47.399Z,9.81
2023-03-07T13:25:21.153Z,9.88
2023-03-07T13:27:51.753Z,9.94
2023-03-07T13:30:30.252Z,10.04
2023-03-07T13:33:01.959Z,10.17
2023-03-07T13:35:33.582Z,10.19
2023-03-07T13:38:22.792Z,10.21
2023-03-07T13:41:03.293Z,10.14
2023-03-07T13:43:31.147Z,10.09
2023-03-07T13:46:00.906Z,10.10
2023-03-07T13:48:29.272Z,10.15
2023-03-07T13:51:00.242Z,10.15
2023-03-07T13:53:28.561Z,10.19
2023-03-07T13:56:15.428Z,10.22
2023-03-07T13:59:28.326Z,10.24
2023-03-07T14:02:04.335Z,10.30
2023-03-07T14:04:50.081Z,10.27
2023-03-07T14:07:28.102Z,10.30
2023-03-07T14:10:21.442Z,10.30
2023-03-07T14:13:22.844Z,10.31
2023-03-07T14:15:57.118Z,10.28
2023-03-07T14:18:24.750Z,10.26
2023-03-07T14:21:09.623Z,10.24
2023-03-07T14:23:55.801Z,10.20
2023-03-07T14:26:26.354Z,10.16
2023-03-07T14:29:01.864Z,10.14
2023-03-07T14:31:37.474Z,10.18
2023-03-07T14:34:29.827Z,10.19
2023-03-07T14:37:19.138Z,10.14
2023-03-07T14:40:09.202Z,10.13
2023-03-07T14:42:51.159Z,10.12
2023-03-07T14:45:43.264Z,10.05
2023-03-07T14:48:15.565Z,10.03
2023-03-07T14:50:44.896Z,10.03
2023-03-07T14:53:20.811Z,9.99
2023-03-07T14:55:51.768Z,9.96
2023-03-07T14:58:23.316Z,9.94
2023-03-07T15:01:02.731Z,9.89
2023-03-07T15:03:31.590Z,9.86
2023-03-07T15:06:01.327Z,9.85
2023-03-07T15:08:38.705Z,9.91
2023-03-07T15:11:23.919Z,9.92
2023-03-07T15:13:55.138Z,9.87
2023-03-07T15:16:39.958Z,9.86
2023-03-07T15:19:22.745Z,9.84
2023-03-07T15:21:58.157Z,9.83
2023-03-07T15:24:25.666Z,9.82
2023-03-07T15:26:55.692Z,9.83
2023-03-07T15:29:25.851Z,9.77
2023-03-07T15:32:03.988Z,9.76
2023-03-07T15:34:34.823Z,9.73
2023-03-07T15:37:24.118Z,9.71
2023-03-07T15:40:35.242Z,9.70
2023-03-07T15:43:04.531Z,9.69
2023-03-07T15:45:36.106Z,9.72
2023-03-07T15:48:35.834Z,9.70
2023-03-07T15:51:06.492Z,9.70
2023-03-07T15:53:40.807Z,9.66
2023-03-07T15:56:26.406Z,9.68
2023-03-07T15:59:01.343Z,9.68
2023-03-07T16:01:33.748Z,9.68
2023-03-07T16:04:04.137Z,9.69
2023-03-07T16:06:42.440Z,9.68
2023-03-07T16:09:14.187Z,9.65
2023-03-07T16:11:44.060Z,9.65
2023-03-07T16:14:26.173Z,9.60
2023-03-07T16:17:00.144Z,9.58
2023-03-07T16:19:28.043Z,9.60
2023-03-07T16:21:56.326Z,9.60
2023-03-07T16:24:24.331Z,9.62
2023-03-07T16:26:52.054Z,9.35
2023-03-07T16:29:22.611Z,9.04
2023-03-07T16:31:50.803Z,8.81
2023-03-07T16:34:21.476Z,8.68
2023-03-07T16:36:49.392Z,8.60
2023-03-07T16:39:18.547Z,8.52
2023-03-07T16:41:48.277Z,8.34
2023-03-07T16:44:23.706Z,8.29
2023-03-07T16:47:15.816Z,8.16
2023-03-07T16:49:44.487Z,8.18
2023-03-07T16:52:13.985Z,8.11
2023-03-07T16:54:42.002Z,8.05
2023-03-07T16:57:17.300Z,8.03
2023-03-07T16:59:48.406Z,7.86
2023-03-07T17:02:19.196Z,7.62
2023-03-07T17:04:47.334Z,7.62
2023-03-07T17:07:19.084Z,7.51
2023-03-07T17:09:47.140Z,7.42
2023-03-07T17:12:16.520Z,7.37
2023-03-07T17:14:46.848Z,7.17
2023-03-07T17:17:21.007Z,7.18
2023-03-07T17:19:49.284Z,7.18
2023-03-07T17:22:20.373Z,7.04
2023-03-07T17:24:48.091Z,6.98
2023-03-07T17:27:20.592Z,6.85
2023-03-07T17:29:52.888Z,6.70
2023-03-07T17:32:20.863Z,6.53
2023-03-07T17:34:49.553Z,6.34
2023-03-07T17:37:17.934Z,6.27
2023-03-07T17:39:46.065Z,6.18
2023-03-07T17:42:20.343Z,6.11
2023-03-07T17:44:48.305Z,6.08
2023-03-07T17:47:17.677Z,6.00
2023-03-07T17:49:46.891Z,5.99
2023-03-07T17:52:15.018Z,6.02
2023-03-07T17:54:45.929Z,6.02
2023-03-07T17:57:14.057Z,6.02
2023-03-07T17:59:42.797Z,6.01
2023-03-07T18:02:13.636Z,6.03
2023-03-07T18:04:41.754Z,6.06
2023-03-07T18:07:09.569Z,6.07
2023-03-07T18:09:41.269Z,6.20
2023-03-07T18:12:09.493Z,6.18
2023-03-07T18:14:38.946Z,6.10
2023-03-07T18:17:06.682Z,5.92
2023-03-07T18:19:34.436Z,5.84
2023-03-07T18:22:02.336Z,5.76
2023-03-07T18:24:30.375Z,5.71
2023-03-07T18:26:59.635Z,5.66
2023-03-07T18:29:29.016Z,5.67
2023-03-07T18:31:56.690Z,5.67
2023-03-07T18:34:25.605Z,5.76
2023-03-07T18:36:54.440Z,5.79
2023-03-07T18:39:23.395Z,5.85
2023-03-07T18:41:51.572Z,5.93
2023-03-07T18:44:19.806Z,5.90
2023-03-07T18:46:49.655Z,5.93
2023-03-07T18:49:17.956Z,5.89
2023-03-07T18:51:46.242Z,5.88
2023-03-07T18:54:15.354Z,5.94
2023-03-07T18:56:47.404Z,5.90
2023-03-07T18:59:17.364Z,5.96
2023-03-07T19:01:50.334Z,5.93
2023-03-07T19:04:18.484Z,5.89
2023-03-07T19:06:47.643Z,5.93
2023-03-07T19:09:17.493Z,5.85
2023-03-07T19:11:47.677Z,5.78
2023-03-07T19:14:16.923Z,5.81
2023-03-07T19:16:45.166Z,5.83
2023-03-07T19:19:13.753Z,5.87
2023-03-07T19:21:41.562Z,5.93
2023-03-07T19:24:11.474Z,5.93
2023-03-07T19:26:41.710Z,5.90
2023-03-07T19:29:12.192Z,5.88
2023-03-07T19:31:43.912Z,5.71
2023-03-07T19:34:11.828Z,5.78
2023-03-07T19:36:41.705Z,5.92
2023-03-07T19:39:20.474Z,5.96
2023-03-07T19:41:48.404Z,5.96
2023-03-07T19:44:16.704Z,5.91
2023-03-07T19:46:47.337Z,5.92
2023-03-07T19:49:19.669Z,5.91
2023-03-07T19:51:47.497Z,5.89
2023-03-07T19:54:15.780Z,5.83
2023-03-07T19:56:45.760Z,5.83
2023-03-07T19:59:13.841Z,5.88
2023-03-07T20:01:43.105Z,5.88
2023-03-07T20:04:16.112Z,5.86
2023-03-07T20:06:45.080Z,5.81
2023-03-07T20:09:13.486Z,5.83
2023-03-07T20:11:43.409Z,5.82
2023-03-07T20:14:16.128Z,5.80
2023-03-07T20:16:45.643Z,5.77
2023-03-07T20:19:14.385Z,5.82
2023-03-07T20:21:49.824Z,5.80
2023-03-07T20:24:18.886Z,5.80
2023-03-07T20:26:48.034Z,5.62
2023-03-07T20:29:16.471Z,5.57
2023-03-07T20:31:44.563Z,5.65
2023-03-07T20:34:13.070Z,5.71
2023-03-07T20:36:43.694Z,5.68
2023-03-07T20:39:14.696Z,5.74
2023-03-07T20:41:43.662Z,5.76
2023-03-07T20:44:13.564Z,5.81
2023-03-07T20:46:41.643Z,5.74
2023-03-07T20:49:13.199Z,5.76
2023-03-07T20:51:42.441Z,5.74
2023-03-07T20:54:15.698Z,5.74
2023-03-07T20:56:45.165Z,5.78
2023-03-07T20:59:19.277Z,5.78
2023-03-07T21:01:47.969Z,5.79
2023-03-07T21:04:18.641Z,5.80
2023-03-07T21:06:50.431Z,5.81
2023-03-07T21:09:19.075Z,5.76
2023-03-07T21:11:50.126Z,5.73
2023-03-07T21:14:20.494Z,5.63
2023-03-07T21:16:52.183Z,5.60
2023-03-07T21:19:21.177Z,5.65
2023-03-07T21:21:49.003Z,5.76
2023-03-07T21:24:26.612Z,5.84
2023-03-07T21:26:54.609Z,5.88
2023-03-07T21:29:22.416Z,5.90
2023-03-07T21:31:52.396Z,5.93
2023-03-07T21:34:20.621Z,5.89
2023-03-07T21:36:56.188Z,5.94
2023-03-07T21:39:25.897Z,5.92
2023-03-07T21:41:54.362Z,6.00
2023-03-07T21:44:25.257Z,6.06
2023-03-07T21:46:53.081Z,5.93
2023-03-07T21:49:21.798Z,5.96
2023-03-07T21:51:49.768Z,5.65
2023-03-07T21:54:17.615Z,5.67
2023-03-07T21:56:45.377Z,5.32
2023-03-07T21:59:13.665Z,5.38
2023-03-07T22:01:42.425Z,5.36
2023-03-07T22:04:10.736Z,5.41
2023-03-07T22:06:38.685Z,5.48
2023-03-07T22:09:12.098Z,5.48
2023-03-07T22:11:40.293Z,5.39
2023-03-07T22:14:09.865Z,5.48
2023-03-07T22:16:40.906Z,5.46
2023-03-07T22:19:08.946Z,5.56
2023-03-07T22:21:38.169Z,5.29
2023-03-07T22:24:11.472Z,5.33
2023-03-07T22:26:39.848Z,5.46
2023-03-07T22:29:07.567Z,5.47
2023-03-07T22:31:39.496Z,5.43
2023-03-07T22:34:08.536Z,5.48
2023-03-07T22:36:36.949Z,5.45
2023-03-07T22:39:07.418Z,5.47
2023-03-07T22:41:41.072Z,5.41
2023-03-07T22:44:09.539Z,5.43
2023-03-07T22:46:37.834Z,5.40
2023-03-07T22:49:05.696Z,5.41
2023-03-07T22:51:35.673Z,5.51
2023-03-07T22:54:05.085Z,5.53
2023-03-07T22:56:34.003Z,5.61
2023-03-07T22:59:05.768Z,5.61
2023-03-07T23:01:34.238Z,5.61
2023-03-07T23:04:02.537Z,5.61
2023-03-07T23:06:37.013Z,5.60
2023-03-07T23:09:07.357Z,5.62
2023-03-07T23:11:38.032Z,5.61
2023-03-07T23:14:07.905Z,5.58
2023-03-07T23:16:49.835Z,5.55
2023-03-07T23:19:21.496Z,5.51
2023-03-07T23:21:50.081Z,5.43
2023-03-07T23:24:19.737Z,5.33
2023-03-07T23:26:48.939Z,5.31
2023-03-07T23:29:17.018Z,5.27
2023-03-07T23:31:45.802Z,5.27
2023-03-07T23:34:36.542Z,5.26
2023-03-07T23:37:05.700Z,5.26
2023-03-07T23:40:01.302Z,5.29
2023-03-07T23:42:47.548Z,5.24
2023-03-07T23:45:16.542Z,5.27
2023-03-07T23:47:46.627Z,5.30
2023-03-07T23:50:21.305Z,5.31
2023-03-07T23:52:50.360Z,5.30
2023-03-07T23:55:18.914Z,5.34
2023-03-07T23:57:48.742Z,5.36
